sensor_id;sensor_type;location;lat;lon;timestamp;P1;durP1;ratioP1;P2;durP2;ratioP2
51578;SDS011;47998;53.242;6.386;2022-12-16T00:00:22;72.00;;;39.30;;
51578;SDS011;47998;53.242;6.386;2022-12-16T00:02:51;70.43;;;36.57;;
51578;SDS011;47998;53.242;6.386;2022-12-16T00:05:17;52.87;;;28.20;;
51578;SDS011;47998;53.242;6.386;2022-12-16T00:07:47;49.27;;;27.93;;
51578;SDS011;47998;53.242;6.386;2022-12-16T00:10:13;39.20;;;21.33;;
51578;SDS011;47998;53.242;6.386;2022-12-16T00:12:39;37.53;;;20.10;;
51578;SDS011;47998;53.242;6.386;2022-12-16T00:15:04;38.53;;;18.00;;
51578;SDS011;47998;53.242;6.386;2022-12-16T00:17:31;33.97;;;17.88;;
51578;SDS011;47998;53.242;6.386;2022-12-16T00:19:56;37.23;;;15.07;;
51578;SDS011;47998;53.242;6.386;2022-12-16T00:22:22;24.57;;;12.40;;
51578;SDS011;47998;53.242;6.386;2022-12-16T00:24:48;24.53;;;11.50;;
51578;SDS011;47998;53.242;6.386;2022-12-16T00:27:17;22.20;;;9.30;;
51578;SDS011;47998;53.242;6.386;2022-12-16T00:29:43;17.07;;;7.73;;
51578;SDS011;47998;53.242;6.386;2022-12-16T00:32:08;18.70;;;8.43;;
51578;SDS011;47998;53.242;6.386;2022-12-16T00:34:34;15.70;;;6.83;;
51578;SDS011;47998;53.242;6.386;2022-12-16T00:37:00;13.57;;;6.70;;
51578;SDS011;47998;53.242;6.386;2022-12-16T00:39:25;12.95;;;5.75;;
51578;SDS011;47998;53.242;6.386;2022-12-16T00:41:51;13.27;;;6.63;;
51578;SDS011;47998;53.242;6.386;2022-12-16T00:44:17;17.77;;;6.43;;
51578;SDS011;47998;53.242;6.386;2022-12-16T00:46:42;14.80;;;5.73;;
51578;SDS011;47998;53.242;6.386;2022-12-16T00:49:08;15.63;;;6.10;;
51578;SDS011;47998;53.242;6.386;2022-12-16T00:51:34;12.80;;;5.10;;
51578;SDS011;47998;53.242;6.386;2022-12-16T00:53:59;17.30;;;6.10;;
51578;SDS011;47998;53.242;6.386;2022-12-16T00:56:25;14.37;;;4.70;;
51578;SDS011;47998;53.242;6.386;2022-12-16T00:58:51;14.53;;;5.37;;
51578;SDS011;47998;53.242;6.386;2022-12-16T01:01:16;11.90;;;5.17;;
51578;SDS011;47998;53.242;6.386;2022-12-16T01:03:42;12.17;;;5.60;;
51578;SDS011;47998;53.242;6.386;2022-12-16T01:06:12;7.63;;;4.00;;
51578;SDS011;47998;53.242;6.386;2022-12-16T01:08:39;12.20;;;5.37;;
51578;SDS011;47998;53.242;6.386;2022-12-16T01:11:12;17.40;;;5.83;;
51578;SDS011;47998;53.242;6.386;2022-12-16T01:13:42;12.00;;;5.47;;
51578;SDS011;47998;53.242;6.386;2022-12-16T01:16:08;11.43;;;5.00;;
51578;SDS011;47998;53.242;6.386;2022-12-16T01:18:34;15.93;;;5.88;;
51578;SDS011;47998;53.242;6.386;2022-12-16T01:21:01;13.05;;;5.25;;
51578;SDS011;47998;53.242;6.386;2022-12-16T01:23:31;9.10;;;4.93;;
51578;SDS011;47998;53.242;6.386;2022-12-16T01:25:58;12.02;;;4.53;;
51578;SDS011;47998;53.242;6.386;2022-12-16T01:28:26;11.20;;;4.82;;
51578;SDS011;47998;53.242;6.386;2022-12-16T01:30:56;15.70;;;6.20;;
51578;SDS011;47998;53.242;6.386;2022-12-16T01:33:26;9.05;;;5.10;;
51578;SDS011;47998;53.242;6.386;2022-12-16T01:35:59;12.00;;;5.30;;
51578;SDS011;47998;53.242;6.386;2022-12-16T01:38:26;10.55;;;4.63;;
51578;SDS011;47998;53.242;6.386;2022-12-16T01:40:52;8.02;;;4.55;;
51578;SDS011;47998;53.242;6.386;2022-12-16T01:43:18;10.93;;;4.88;;
51578;SDS011;47998;53.242;6.386;2022-12-16T01:45:47;11.10;;;5.03;;
51578;SDS011;47998;53.242;6.386;2022-12-16T01:50:53;17.67;;;4.97;;
51578;SDS011;47998;53.242;6.386;2022-12-16T01:53:25;16.40;;;5.47;;
51578;SDS011;47998;53.242;6.386;2022-12-16T01:55:51;15.73;;;4.65;;
51578;SDS011;47998;53.242;6.386;2022-12-16T01:58:20;13.45;;;4.25;;
51578;SDS011;47998;53.242;6.386;2022-12-16T02:00:48;10.50;;;4.90;;
51578;SDS011;47998;53.242;6.386;2022-12-16T02:03:14;16.70;;;5.10;;
51578;SDS011;47998;53.242;6.386;2022-12-16T02:05:40;11.30;;;4.93;;
51578;SDS011;47998;53.242;6.386;2022-12-16T02:13:20;11.35;;;6.25;;
51578;SDS011;47998;53.242;6.386;2022-12-16T02:16:17;10.23;;;5.72;;
51578;SDS011;47998;53.242;6.386;2022-12-16T02:24:45;10.80;;;5.10;;
51578;SDS011;47998;53.242;6.386;2022-12-16T02:36:10;9.65;;;4.95;;
51578;SDS011;47998;53.242;6.386;2022-12-16T02:42:10;10.85;;;5.72;;
51578;SDS011;47998;53.242;6.386;2022-12-16T02:47:30;12.43;;;5.60;;
51578;SDS011;47998;53.242;6.386;2022-12-16T02:49:57;18.20;;;5.63;;
51578;SDS011;47998;53.242;6.386;2022-12-16T02:52:30;10.82;;;5.55;;
51578;SDS011;47998;53.242;6.386;2022-12-16T02:55:01;7.78;;;5.00;;
51578;SDS011;47998;53.242;6.386;2022-12-16T03:00:11;12.93;;;5.88;;
51578;SDS011;47998;53.242;6.386;2022-12-16T03:03:01;8.25;;;5.40;;
51578;SDS011;47998;53.242;6.386;2022-12-16T03:05:34;12.13;;;5.47;;
51578;SDS011;47998;53.242;6.386;2022-12-16T03:08:14;11.80;;;5.23;;
51578;SDS011;47998;53.242;6.386;2022-12-16T03:10:52;7.75;;;5.85;;
51578;SDS011;47998;53.242;6.386;2022-12-16T03:13:21;16.75;;;5.72;;
51578;SDS011;47998;53.242;6.386;2022-12-16T03:15:49;11.70;;;5.20;;
51578;SDS011;47998;53.242;6.386;2022-12-16T03:18:18;11.50;;;5.25;;
51578;SDS011;47998;53.242;6.386;2022-12-16T03:21:02;11.10;;;5.88;;
51578;SDS011;47998;53.242;6.386;2022-12-16T03:23:33;10.07;;;5.70;;
51578;SDS011;47998;53.242;6.386;2022-12-16T03:26:06;13.77;;;5.25;;
51578;SDS011;47998;53.242;6.386;2022-12-16T03:28:42;10.80;;;5.90;;
51578;SDS011;47998;53.242;6.386;2022-12-16T03:31:39;12.60;;;5.50;;
51578;SDS011;47998;53.242;6.386;2022-12-16T03:34:20;15.38;;;5.97;;
51578;SDS011;47998;53.242;6.386;2022-12-16T03:36:50;9.55;;;5.80;;
51578;SDS011;47998;53.242;6.386;2022-12-16T03:39:20;9.93;;;5.82;;
51578;SDS011;47998;53.242;6.386;2022-12-16T03:41:51;10.90;;;6.30;;
51578;SDS011;47998;53.242;6.386;2022-12-16T03:44:21;13.75;;;7.78;;
51578;SDS011;47998;53.242;6.386;2022-12-16T03:46:49;18.40;;;9.50;;
51578;SDS011;47998;53.242;6.386;2022-12-16T03:49:15;16.48;;;10.65;;
51578;SDS011;47998;53.242;6.386;2022-12-16T03:51:41;14.93;;;9.93;;
51578;SDS011;47998;53.242;6.386;2022-12-16T03:54:07;23.90;;;15.50;;
51578;SDS011;47998;53.242;6.386;2022-12-16T03:56:33;26.13;;;15.38;;
51578;SDS011;47998;53.242;6.386;2022-12-16T03:58:58;29.55;;;17.67;;
51578;SDS011;47998;53.242;6.386;2022-12-16T04:01:24;41.47;;;22.35;;
51578;SDS011;47998;53.242;6.386;2022-12-16T04:03:50;32.42;;;19.25;;
51578;SDS011;47998;53.242;6.386;2022-12-16T04:06:15;35.55;;;22.25;;
51578;SDS011;47998;53.242;6.386;2022-12-16T04:08:46;47.95;;;27.95;;
51578;SDS011;47998;53.242;6.386;2022-12-16T04:11:12;47.00;;;26.75;;
51578;SDS011;47998;53.242;6.386;2022-12-16T04:13:57;40.00;;;22.55;;
51578;SDS011;47998;53.242;6.386;2022-12-16T04:16:42;52.97;;;29.77;;
51578;SDS011;47998;53.242;6.386;2022-12-16T04:19:27;62.65;;;32.38;;
51578;SDS011;47998;53.242;6.386;2022-12-16T04:22:17;63.25;;;34.50;;
51578;SDS011;47998;53.242;6.386;2022-12-16T04:25:27;61.45;;;31.67;;
51578;SDS011;47998;53.242;6.386;2022-12-16T04:27:55;63.05;;;33.88;;
51578;SDS011;47998;53.242;6.386;2022-12-16T04:30:22;62.30;;;30.38;;
51578;SDS011;47998;53.242;6.386;2022-12-16T04:32:50;55.50;;;30.60;;
51578;SDS011;47998;53.242;6.386;2022-12-16T04:35:37;59.83;;;31.92;;
51578;SDS011;47998;53.242;6.386;2022-12-16T04:38:22;65.45;;;33.00;;
51578;SDS011;47998;53.242;6.386;2022-12-16T04:41:06;63.92;;;33.53;;
51578;SDS011;47998;53.242;6.386;2022-12-16T04:43:51;62.45;;;32.13;;
51578;SDS011;47998;53.242;6.386;2022-12-16T04:46:35;59.53;;;31.42;;
51578;SDS011;47998;53.242;6.386;2022-12-16T04:49:19;66.10;;;31.70;;
51578;SDS011;47998;53.242;6.386;2022-12-16T04:52:03;60.13;;;31.15;;
51578;SDS011;47998;53.242;6.386;2022-12-16T04:54:48;60.28;;;32.80;;
51578;SDS011;47998;53.242;6.386;2022-12-16T04:57:32;60.30;;;29.92;;
51578;SDS011;47998;53.242;6.386;2022-12-16T05:00:16;52.80;;;29.20;;
51578;SDS011;47998;53.242;6.386;2022-12-16T05:03:01;66.32;;;32.05;;
51578;SDS011;47998;53.242;6.386;2022-12-16T05:05:45;58.15;;;30.85;;
51578;SDS011;47998;53.242;6.386;2022-12-16T05:08:29;53.28;;;28.25;;
51578;SDS011;47998;53.242;6.386;2022-12-16T05:11:14;57.03;;;29.50;;
51578;SDS011;47998;53.242;6.386;2022-12-16T05:13:58;62.00;;;32.25;;
51578;SDS011;47998;53.242;6.386;2022-12-16T05:16:42;59.60;;;31.42;;
51578;SDS011;47998;53.242;6.386;2022-12-16T05:19:26;61.75;;;32.25;;
51578;SDS011;47998;53.242;6.386;2022-12-16T05:22:10;60.90;;;32.17;;
51578;SDS011;47998;53.242;6.386;2022-12-16T05:24:55;61.45;;;32.30;;
51578;SDS011;47998;53.242;6.386;2022-12-16T05:27:39;62.88;;;33.45;;
51578;SDS011;47998;53.242;6.386;2022-12-16T05:30:23;59.45;;;31.50;;
51578;SDS011;47998;53.242;6.386;2022-12-16T05:33:08;51.33;;;27.83;;
51578;SDS011;47998;53.242;6.386;2022-12-16T05:35:52;65.55;;;32.78;;
51578;SDS011;47998;53.242;6.386;2022-12-16T05:38:36;64.55;;;32.35;;
51578;SDS011;47998;53.242;6.386;2022-12-16T05:41:21;57.05;;;30.88;;
51578;SDS011;47998;53.242;6.386;2022-12-16T05:44:05;61.40;;;31.05;;
51578;SDS011;47998;53.242;6.386;2022-12-16T05:46:49;64.28;;;32.63;;
51578;SDS011;47998;53.242;6.386;2022-12-16T05:49:34;62.58;;;33.33;;
51578;SDS011;47998;53.242;6.386;2022-12-16T05:52:18;70.63;;;35.22;;
51578;SDS011;47998;53.242;6.386;2022-12-16T05:55:02;65.18;;;32.85;;
51578;SDS011;47998;53.242;6.386;2022-12-16T05:57:48;66.35;;;34.10;;
51578;SDS011;47998;53.242;6.386;2022-12-16T06:00:33;66.43;;;34.05;;
51578;SDS011;47998;53.242;6.386;2022-12-16T06:03:17;70.97;;;34.45;;
51578;SDS011;47998;53.242;6.386;2022-12-16T06:06:01;66.38;;;34.88;;
51578;SDS011;47998;53.242;6.386;2022-12-16T06:08:45;64.57;;;34.22;;
51578;SDS011;47998;53.242;6.386;2022-12-16T06:11:30;68.50;;;34.20;;
51578;SDS011;47998;53.242;6.386;2022-12-16T06:14:14;66.53;;;36.35;;
51578;SDS011;47998;53.242;6.386;2022-12-16T06:16:58;68.90;;;34.90;;
51578;SDS011;47998;53.242;6.386;2022-12-16T06:19:42;65.10;;;37.00;;
51578;SDS011;47998;53.242;6.386;2022-12-16T06:22:26;71.50;;;37.63;;
51578;SDS011;47998;53.242;6.386;2022-12-16T06:25:10;64.13;;;36.08;;
51578;SDS011;47998;53.242;6.386;2022-12-16T06:27:55;66.38;;;34.85;;
51578;SDS011;47998;53.242;6.386;2022-12-16T06:30:39;59.93;;;34.60;;
51578;SDS011;47998;53.242;6.386;2022-12-16T06:33:23;57.13;;;34.05;;
51578;SDS011;47998;53.242;6.386;2022-12-16T06:36:07;60.03;;;35.67;;
51578;SDS011;47998;53.242;6.386;2022-12-16T06:38:52;57.60;;;35.20;;
51578;SDS011;47998;53.242;6.386;2022-12-16T06:41:36;59.70;;;35.22;;
51578;SDS011;47998;53.242;6.386;2022-12-16T06:44:20;61.07;;;34.23;;
51578;SDS011;47998;53.242;6.386;2022-12-16T06:47:04;61.28;;;34.47;;
51578;SDS011;47998;53.242;6.386;2022-12-16T06:49:48;69.63;;;37.92;;
51578;SDS011;47998;53.242;6.386;2022-12-16T06:52:32;64.63;;;37.08;;
51578;SDS011;47998;53.242;6.386;2022-12-16T06:55:17;57.88;;;34.30;;
51578;SDS011;47998;53.242;6.386;2022-12-16T06:58:01;65.45;;;35.80;;
51578;SDS011;47998;53.242;6.386;2022-12-16T07:00:45;65.95;;;37.35;;
51578;SDS011;47998;53.242;6.386;2022-12-16T07:03:30;73.85;;;39.45;;
51578;SDS011;47998;53.242;6.386;2022-12-16T07:06:14;71.07;;;37.42;;
51578;SDS011;47998;53.242;6.386;2022-12-16T07:08:58;70.68;;;36.95;;
51578;SDS011;47998;53.242;6.386;2022-12-16T07:11:42;67.93;;;37.17;;
51578;SDS011;47998;53.242;6.386;2022-12-16T07:14:27;69.55;;;37.17;;
51578;SDS011;47998;53.242;6.386;2022-12-16T07:17:11;69.53;;;36.28;;
51578;SDS011;47998;53.242;6.386;2022-12-16T07:19:55;77.47;;;41.10;;
51578;SDS011;47998;53.242;6.386;2022-12-16T07:22:43;79.07;;;40.13;;
51578;SDS011;47998;53.242;6.386;2022-12-16T07:25:28;78.15;;;40.25;;
51578;SDS011;47998;53.242;6.386;2022-12-16T07:28:12;74.30;;;39.95;;
51578;SDS011;47998;53.242;6.386;2022-12-16T07:30:56;78.95;;;40.40;;
51578;SDS011;47998;53.242;6.386;2022-12-16T07:33:40;73.97;;;38.92;;
51578;SDS011;47998;53.242;6.386;2022-12-16T07:36:25;69.10;;;39.33;;
51578;SDS011;47998;53.242;6.386;2022-12-16T07:39:09;77.18;;;39.30;;
51578;SDS011;47998;53.242;6.386;2022-12-16T07:41:54;80.35;;;40.63;;
51578;SDS011;47998;53.242;6.386;2022-12-16T07:44:38;85.78;;;39.95;;
51578;SDS011;47998;53.242;6.386;2022-12-16T07:47:22;79.55;;;41.97;;
51578;SDS011;47998;53.242;6.386;2022-12-16T07:50:07;78.63;;;41.70;;
51578;SDS011;47998;53.242;6.386;2022-12-16T07:52:58;81.53;;;43.35;;
51578;SDS011;47998;53.242;6.386;2022-12-16T07:55:43;67.50;;;36.05;;
51578;SDS011;47998;53.242;6.386;2022-12-16T07:58:30;79.47;;;39.10;;
51578;SDS011;47998;53.242;6.386;2022-12-16T08:01:14;82.85;;;42.95;;
51578;SDS011;47998;53.242;6.386;2022-12-16T08:03:58;78.20;;;40.60;;
51578;SDS011;47998;53.242;6.386;2022-12-16T08:06:42;85.45;;;41.92;;
51578;SDS011;47998;53.242;6.386;2022-12-16T08:09:27;84.47;;;41.22;;
51578;SDS011;47998;53.242;6.386;2022-12-16T08:12:11;85.60;;;41.75;;
51578;SDS011;47998;53.242;6.386;2022-12-16T08:14:55;92.70;;;43.38;;
51578;SDS011;47998;53.242;6.386;2022-12-16T08:17:49;79.47;;;42.90;;
51578;SDS011;47998;53.242;6.386;2022-12-16T08:20:34;94.75;;;44.83;;
51578;SDS011;47998;53.242;6.386;2022-12-16T08:23:19;89.32;;;42.67;;
51578;SDS011;47998;53.242;6.386;2022-12-16T08:26:03;92.97;;;43.58;;
51578;SDS011;47998;53.242;6.386;2022-12-16T08:28:48;97.32;;;45.33;;
51578;SDS011;47998;53.242;6.386;2022-12-16T08:31:33;93.70;;;44.53;;
51578;SDS011;47998;53.242;6.386;2022-12-16T08:34:17;87.88;;;41.13;;
51578;SDS011;47998;53.242;6.386;2022-12-16T08:37:02;102.80;;;45.33;;
51578;SDS011;47998;53.242;6.386;2022-12-16T08:39:46;108.85;;;49.65;;
51578;SDS011;47998;53.242;6.386;2022-12-16T08:42:30;96.97;;;50.53;;
51578;SDS011;47998;53.242;6.386;2022-12-16T08:45:15;101.63;;;48.40;;
51578;SDS011;47998;53.242;6.386;2022-12-16T08:47:59;94.27;;;46.20;;
51578;SDS011;47998;53.242;6.386;2022-12-16T08:50:44;97.63;;;45.83;;
51578;SDS011;47998;53.242;6.386;2022-12-16T08:53:28;98.25;;;45.83;;
51578;SDS011;47998;53.242;6.386;2022-12-16T08:56:12;107.88;;;50.03;;
51578;SDS011;47998;53.242;6.386;2022-12-16T08:58:56;106.00;;;50.25;;
51578;SDS011;47998;53.242;6.386;2022-12-16T09:01:54;101.43;;;49.38;;
51578;SDS011;47998;53.242;6.386;2022-12-16T09:04:39;111.70;;;49.83;;
51578;SDS011;47998;53.242;6.386;2022-12-16T09:07:23;99.43;;;47.80;;
51578;SDS011;47998;53.242;6.386;2022-12-16T09:10:08;107.25;;;50.13;;
51578;SDS011;47998;53.242;6.386;2022-12-16T09:12:52;115.55;;;50.20;;
51578;SDS011;47998;53.242;6.386;2022-12-16T09:15:36;112.80;;;51.90;;
51578;SDS011;47998;53.242;6.386;2022-12-16T09:18:20;95.33;;;46.57;;
51578;SDS011;47998;53.242;6.386;2022-12-16T09:21:05;100.35;;;50.00;;
51578;SDS011;47998;53.242;6.386;2022-12-16T09:23:49;83.33;;;43.83;;
51578;SDS011;47998;53.242;6.386;2022-12-16T09:26:33;98.05;;;48.72;;
51578;SDS011;47998;53.242;6.386;2022-12-16T09:29:17;105.60;;;50.83;;
51578;SDS011;47998;53.242;6.386;2022-12-16T09:32:02;101.10;;;48.80;;
51578;SDS011;47998;53.242;6.386;2022-12-16T09:34:46;99.55;;;49.00;;
51578;SDS011;47998;53.242;6.386;2022-12-16T09:37:30;97.90;;;48.03;;
51578;SDS011;47998;53.242;6.386;2022-12-16T09:40:15;103.15;;;50.63;;
51578;SDS011;47998;53.242;6.386;2022-12-16T09:43:20;98.23;;;48.37;;
51578;SDS011;47998;53.242;6.386;2022-12-16T09:52:03;106.90;;;49.87;;
51578;SDS011;47998;53.242;6.386;2022-12-16T09:54:54;106.03;;;52.43;;
51578;SDS011;47998;53.242;6.386;2022-12-16T09:57:44;100.20;;;49.90;;
51578;SDS011;47998;53.242;6.386;2022-12-16T10:00:29;106.30;;;50.50;;
51578;SDS011;47998;53.242;6.386;2022-12-16T10:03:23;99.87;;;48.70;;
51578;SDS011;47998;53.242;6.386;2022-12-16T10:06:20;99.70;;;49.93;;
51578;SDS011;47998;53.242;6.386;2022-12-16T10:22:06;111.23;;;49.57;;
51578;SDS011;47998;53.242;6.386;2022-12-16T10:25:05;100.15;;;48.80;;
51578;SDS011;47998;53.242;6.386;2022-12-16T10:28:07;101.13;;;46.63;;
51578;SDS011;47998;53.242;6.386;2022-12-16T10:30:54;110.43;;;48.90;;
51578;SDS011;47998;53.242;6.386;2022-12-16T10:33:38;106.33;;;49.70;;
51578;SDS011;47998;53.242;6.386;2022-12-16T10:36:24;99.40;;;47.85;;
51578;SDS011;47998;53.242;6.386;2022-12-16T10:39:23;108.35;;;50.35;;
51578;SDS011;47998;53.242;6.386;2022-12-16T10:42:21;86.65;;;45.00;;
51578;SDS011;47998;53.242;6.386;2022-12-16T10:45:30;103.03;;;48.00;;
51578;SDS011;47998;53.242;6.386;2022-12-16T10:48:26;107.40;;;46.53;;
51578;SDS011;47998;53.242;6.386;2022-12-16T10:51:13;94.45;;;44.47;;
51578;SDS011;47998;53.242;6.386;2022-12-16T10:54:01;91.68;;;44.63;;
51578;SDS011;47998;53.242;6.386;2022-12-16T11:00:17;93.00;;;44.88;;
51578;SDS011;47998;53.242;6.386;2022-12-16T11:09:20;90.60;;;43.80;;
51578;SDS011;47998;53.242;6.386;2022-12-16T11:15:00;83.22;;;42.58;;
51578;SDS011;47998;53.242;6.386;2022-12-16T11:18:00;88.65;;;44.05;;
51578;SDS011;47998;53.242;6.386;2022-12-16T11:20:47;83.40;;;42.50;;
51578;SDS011;47998;53.242;6.386;2022-12-16T11:26:51;88.72;;;42.85;;
51578;SDS011;47998;53.242;6.386;2022-12-16T11:29:47;93.28;;;45.47;;
51578;SDS011;47998;53.242;6.386;2022-12-16T11:32:40;92.72;;;44.60;;
51578;SDS011;47998;53.242;6.386;2022-12-16T11:35:29;96.22;;;44.20;;
51578;SDS011;47998;53.242;6.386;2022-12-16T11:38:25;87.40;;;41.10;;
51578;SDS011;47998;53.242;6.386;2022-12-16T11:41:19;89.38;;;43.13;;
51578;SDS011;47998;53.242;6.386;2022-12-16T11:44:09;85.75;;;44.63;;
51578;SDS011;47998;53.242;6.386;2022-12-16T11:47:00;100.25;;;44.45;;
51578;SDS011;47998;53.242;6.386;2022-12-16T11:49:44;92.35;;;44.05;;
51578;SDS011;47998;53.242;6.386;2022-12-16T11:52:29;91.15;;;44.85;;
51578;SDS011;47998;53.242;6.386;2022-12-16T11:55:18;89.65;;;45.25;;
51578;SDS011;47998;53.242;6.386;2022-12-16T12:01:10;94.50;;;45.40;;
51578;SDS011;47998;53.242;6.386;2022-12-16T12:03:58;99.00;;;45.00;;
51578;SDS011;47998;53.242;6.386;2022-12-16T12:07:24;95.60;;;47.03;;
51578;SDS011;47998;53.242;6.386;2022-12-16T12:19:25;98.70;;;46.95;;
51578;SDS011;47998;53.242;6.386;2022-12-16T12:22:43;98.18;;;46.75;;
51578;SDS011;47998;53.242;6.386;2022-12-16T12:28:24;96.60;;;47.13;;
51578;SDS011;47998;53.242;6.386;2022-12-16T12:37:22;99.28;;;48.40;;
51578;SDS011;47998;53.242;6.386;2022-12-16T12:49:22;96.35;;;45.17;;
51578;SDS011;47998;53.242;6.386;2022-12-16T12:57:57;98.45;;;46.65;;
51578;SDS011;47998;53.242;6.386;2022-12-16T13:00:44;94.32;;;46.00;;
51578;SDS011;47998;53.242;6.386;2022-12-16T13:06:29;99.20;;;46.17;;
51578;SDS011;47998;53.242;6.386;2022-12-16T13:09:28;91.68;;;46.00;;
51578;SDS011;47998;53.242;6.386;2022-12-16T13:15:06;85.43;;;43.47;;
51578;SDS011;47998;53.242;6.386;2022-12-16T13:20:55;84.43;;;42.88;;
51578;SDS011;47998;53.242;6.386;2022-12-16T13:23:41;82.60;;;42.53;;
51578;SDS011;47998;53.242;6.386;2022-12-16T13:26:27;86.95;;;42.00;;
51578;SDS011;47998;53.242;6.386;2022-12-16T13:29:17;87.97;;;43.30;;
51578;SDS011;47998;53.242;6.386;2022-12-16T13:32:18;81.50;;;42.38;;
51578;SDS011;47998;53.242;6.386;2022-12-16T13:37:57;85.10;;;42.78;;
51578;SDS011;47998;53.242;6.386;2022-12-16T13:43:51;92.47;;;44.05;;
51578;SDS011;47998;53.242;6.386;2022-12-16T13:52:35;85.57;;;43.47;;
51578;SDS011;47998;53.242;6.386;2022-12-16T14:01:28;89.15;;;42.40;;
51578;SDS011;47998;53.242;6.386;2022-12-16T14:04:28;80.70;;;40.33;;
51578;SDS011;47998;53.242;6.386;2022-12-16T14:07:16;82.60;;;42.03;;
51578;SDS011;47998;53.242;6.386;2022-12-16T14:10:03;81.28;;;42.33;;
51578;SDS011;47998;53.242;6.386;2022-12-16T14:12:54;87.70;;;41.30;;
51578;SDS011;47998;53.242;6.386;2022-12-16T14:15:58;86.40;;;43.23;;
51578;SDS011;47998;53.242;6.386;2022-12-16T14:21:33;94.40;;;43.65;;
51578;SDS011;47998;53.242;6.386;2022-12-16T14:24:25;99.93;;;44.35;;
51578;SDS011;47998;53.242;6.386;2022-12-16T14:27:13;82.88;;;41.75;;
51578;SDS011;47998;53.242;6.386;2022-12-16T14:30:00;93.15;;;44.08;;
51578;SDS011;47998;53.242;6.386;2022-12-16T14:32:46;98.28;;;43.83;;
51578;SDS011;47998;53.242;6.386;2022-12-16T14:35:30;87.43;;;45.07;;
51578;SDS011;47998;53.242;6.386;2022-12-16T14:41:09;88.90;;;44.25;;
51578;SDS011;47998;53.242;6.386;2022-12-16T14:43:54;92.13;;;46.03;;
51578;SDS011;47998;53.242;6.386;2022-12-16T14:46:38;95.07;;;44.00;;
51578;SDS011;47998;53.242;6.386;2022-12-16T14:52:22;98.73;;;42.87;;
51578;SDS011;47998;53.242;6.386;2022-12-16T14:55:18;88.10;;;43.47;;
51578;SDS011;47998;53.242;6.386;2022-12-16T14:58:12;101.93;;;45.20;;
51578;SDS011;47998;53.242;6.386;2022-12-16T15:01:14;88.77;;;41.67;;
51578;SDS011;47998;53.242;6.386;2022-12-16T15:04:04;102.73;;;44.67;;
51578;SDS011;47998;53.242;6.386;2022-12-16T15:06:55;107.00;;;45.83;;
51578;SDS011;47998;53.242;6.386;2022-12-16T15:09:40;120.03;;;49.80;;
51578;SDS011;47998;53.242;6.386;2022-12-16T15:12:31;128.33;;;52.40;;
51578;SDS011;47998;53.242;6.386;2022-12-16T15:18:17;143.40;;;56.10;;
51578;SDS011;47998;53.242;6.386;2022-12-16T15:21:05;152.13;;;57.17;;
51578;SDS011;47998;53.242;6.386;2022-12-16T15:23:51;146.57;;;54.23;;
51578;SDS011;47998;53.242;6.386;2022-12-16T15:26:35;154.33;;;53.17;;
51578;SDS011;47998;53.242;6.386;2022-12-16T15:29:32;151.30;;;52.70;;
51578;SDS011;47998;53.242;6.386;2022-12-16T15:38:29;156.57;;;53.47;;
51578;SDS011;47998;53.242;6.386;2022-12-16T15:47:04;140.37;;;50.40;;
51578;SDS011;47998;53.242;6.386;2022-12-16T15:50:12;163.90;;;56.13;;
51578;SDS011;47998;53.242;6.386;2022-12-16T15:56:24;165.53;;;60.60;;
51578;SDS011;47998;53.242;6.386;2022-12-16T15:59:25;181.27;;;62.30;;
51578;SDS011;47998;53.242;6.386;2022-12-16T16:05:00;179.07;;;66.53;;
51578;SDS011;47998;53.242;6.386;2022-12-16T16:07:50;199.47;;;63.03;;
51578;SDS011;47998;53.242;6.386;2022-12-16T16:10:34;207.37;;;68.50;;
51578;SDS011;47998;53.242;6.386;2022-12-16T16:13:19;188.93;;;69.13;;
51578;SDS011;47998;53.242;6.386;2022-12-16T16:16:03;208.63;;;70.13;;
51578;SDS011;47998;53.242;6.386;2022-12-16T16:18:48;224.47;;;76.30;;
51578;SDS011;47998;53.242;6.386;2022-12-16T16:21:32;200.83;;;71.27;;
51578;SDS011;47998;53.242;6.386;2022-12-16T16:24:16;228.77;;;75.70;;
51578;SDS011;47998;53.242;6.386;2022-12-16T16:27:01;176.27;;;62.23;;
51578;SDS011;47998;53.242;6.386;2022-12-16T16:29:46;171.50;;;62.33;;
51578;SDS011;47998;53.242;6.386;2022-12-16T16:32:30;203.07;;;70.37;;
51578;SDS011;47998;53.242;6.386;2022-12-16T16:35:14;212.50;;;70.93;;
51578;SDS011;47998;53.242;6.386;2022-12-16T16:37:58;195.33;;;67.23;;
51578;SDS011;47998;53.242;6.386;2022-12-16T16:40:43;188.88;;;65.10;;
51578;SDS011;47998;53.242;6.386;2022-12-16T16:43:27;180.90;;;62.63;;
51578;SDS011;47998;53.242;6.386;2022-12-16T16:46:22;188.13;;;66.60;;
51578;SDS011;47998;53.242;6.386;2022-12-16T16:49:21;165.57;;;60.92;;
51578;SDS011;47998;53.242;6.386;2022-12-16T16:52:31;192.20;;;63.50;;
51578;SDS011;47998;53.242;6.386;2022-12-16T16:55:22;164.10;;;62.87;;
51578;SDS011;47998;53.242;6.386;2022-12-16T16:58:11;175.77;;;61.07;;
51578;SDS011;47998;53.242;6.386;2022-12-16T17:00:58;172.90;;;62.87;;
51578;SDS011;47998;53.242;6.386;2022-12-16T17:03:42;231.33;;;106.00;;
51578;SDS011;47998;53.242;6.386;2022-12-16T17:06:27;164.50;;;63.73;;
51578;SDS011;47998;53.242;6.386;2022-12-16T17:09:11;155.97;;;63.57;;
51578;SDS011;47998;53.242;6.386;2022-12-16T17:11:56;179.07;;;65.50;;
51578;SDS011;47998;53.242;6.386;2022-12-16T17:14:40;205.97;;;84.93;;
51578;SDS011;47998;53.242;6.386;2022-12-16T17:17:24;163.00;;;59.83;;
51578;SDS011;47998;53.242;6.386;2022-12-16T17:20:12;162.67;;;61.57;;
51578;SDS011;47998;53.242;6.386;2022-12-16T17:22:58;173.23;;;61.67;;
51578;SDS011;47998;53.242;6.386;2022-12-16T17:25:42;180.33;;;61.50;;
51578;SDS011;47998;53.242;6.386;2022-12-16T17:28:26;194.83;;;64.00;;
51578;SDS011;47998;53.242;6.386;2022-12-16T17:31:11;181.20;;;61.23;;
51578;SDS011;47998;53.242;6.386;2022-12-16T17:33:55;188.40;;;59.73;;
51578;SDS011;47998;53.242;6.386;2022-12-16T17:36:39;173.10;;;58.30;;
51578;SDS011;47998;53.242;6.386;2022-12-16T17:39:24;181.97;;;60.57;;
51578;SDS011;47998;53.242;6.386;2022-12-16T17:42:08;167.87;;;58.57;;
51578;SDS011;47998;53.242;6.386;2022-12-16T17:44:52;185.57;;;60.97;;
51578;SDS011;47998;53.242;6.386;2022-12-16T17:47:36;177.60;;;59.27;;
51578;SDS011;47998;53.242;6.386;2022-12-16T17:50:21;163.90;;;57.87;;
51578;SDS011;47998;53.242;6.386;2022-12-16T17:53:05;172.67;;;60.13;;
51578;SDS011;47998;53.242;6.386;2022-12-16T17:55:49;171.20;;;59.53;;
51578;SDS011;47998;53.242;6.386;2022-12-16T17:58:34;178.80;;;59.97;;
51578;SDS011;47998;53.242;6.386;2022-12-16T18:01:20;193.17;;;60.97;;
51578;SDS011;47998;53.242;6.386;2022-12-16T18:04:05;147.23;;;55.50;;
51578;SDS011;47998;53.242;6.386;2022-12-16T18:06:49;169.43;;;57.90;;
51578;SDS011;47998;53.242;6.386;2022-12-16T18:09:33;172.43;;;58.57;;
51578;SDS011;47998;53.242;6.386;2022-12-16T18:12:18;188.60;;;61.23;;
51578;SDS011;47998;53.242;6.386;2022-12-16T18:15:03;174.50;;;62.17;;
51578;SDS011;47998;53.242;6.386;2022-12-16T18:17:48;175.20;;;60.03;;
51578;SDS011;47998;53.242;6.386;2022-12-16T18:20:32;176.43;;;61.43;;
51578;SDS011;47998;53.242;6.386;2022-12-16T18:23:17;169.60;;;59.93;;
51578;SDS011;47998;53.242;6.386;2022-12-16T18:26:03;186.93;;;64.20;;
51578;SDS011;47998;53.242;6.386;2022-12-16T18:28:49;181.40;;;60.20;;